createdAt,value
2023-03-29T00:00:14.182Z,89.36
2023-03-29T00:02:48.472Z,89.81
2023-03-29T00:05:23.117Z,90.88
2023-03-29T00:08:01.733Z,91.43
2023-03-29T00:10:30.161Z,91.56
2023-03-29T00:12:58.600Z,92.28
2023-03-29T00:15:28.649Z,92.27
2023-03-29T00:17:57.315Z,92.79
2023-03-29T00:20:25.930Z,92.78
2023-03-29T00:22:54.360Z,92.83
2023-03-29T00:25:22.728Z,92.54
2023-03-29T00:27:51.235Z,93.22
2023-03-29T00:30:19.987Z,93.85
2023-03-29T00:32:49.797Z,94.18
2023-03-29T00:35:18.270Z,94.70
2023-03-29T00:37:47.223Z,94.30
2023-03-29T00:40:16.722Z,94.43
2023-03-29T00:42:45.536Z,94.38
2023-03-29T00:45:22.452Z,95.07
2023-03-29T00:47:55.584Z,95.03
2023-03-29T00:50:29.640Z,94.95
2023-03-29T00:53:04.403Z,94.04
2023-03-29T00:55:36.374Z,94.31
2023-03-29T00:58:08.737Z,94.68
2023-03-29T01:00:41.344Z,94.62
2023-03-29T01:03:15.397Z,93.99
2023-03-29T01:05:47.904Z,93.73
2023-03-29T01:08:21.902Z,94.40
2023-03-29T01:10:54.745Z,94.39
2023-03-29T01:13:30.129Z,93.69
2023-03-29T01:16:00.170Z,94.68
2023-03-29T01:18:31.444Z,94.05
2023-03-29T01:21:15.345Z,93.23
2023-03-29T01:24:08.470Z,92.79
2023-03-29T01:26:44.862Z,93.32
2023-03-29T01:29:18.500Z,93.14
2023-03-29T01:31:52.704Z,92.55
2023-03-29T01:34:25.566Z,92.42
2023-03-29T01:37:00.468Z,91.30
2023-03-29T01:39:28.808Z,91.30
2023-03-29T01:42:06.413Z,91.73
2023-03-29T01:44:41.352Z,93.10
2023-03-29T01:47:14.828Z,93.42
2023-03-29T01:49:47.925Z,93.70
2023-03-29T01:52:21.466Z,93.94
2023-03-29T01:54:54.676Z,93.87
2023-03-29T01:57:25.690Z,93.76
2023-03-29T01:59:58.846Z,94.72
2023-03-29T02:02:30.451Z,95.23
2023-03-29T02:05:00.155Z,95.82
2023-03-29T02:07:32.348Z,95.92
2023-03-29T02:10:02.220Z,95.69
2023-03-29T02:12:30.716Z,96.56
2023-03-29T02:15:00.858Z,96.02
2023-03-29T02:17:34.316Z,96.72
2023-03-29T02:20:14.079Z,97.20
2023-03-29T02:22:50.683Z,97.32
2023-03-29T02:25:22.490Z,97.25
2023-03-29T02:27:51.807Z,97.36
2023-03-29T02:30:22.638Z,97.25
2023-03-29T02:32:56.835Z,97.24
2023-03-29T02:35:34.563Z,97.17
2023-03-29T02:38:06.517Z,96.55
2023-03-29T02:40:39.192Z,96.34
2023-03-29T02:43:09.168Z,95.86
2023-03-29T02:45:41.617Z,95.43
2023-03-29T02:48:13.599Z,95.33
2023-03-29T02:50:46.360Z,95.29
2023-03-29T02:53:18.923Z,93.40
2023-03-29T02:55:47.496Z,93.70
2023-03-29T02:58:16.416Z,93.12
2023-03-29T03:00:48.081Z,93.72
2023-03-29T03:03:16.967Z,93.45
2023-03-29T03:05:45.462Z,93.85
2023-03-29T03:08:13.995Z,94.55
2023-03-29T03:10:42.619Z,94.57
2023-03-29T03:13:11.323Z,94.48
2023-03-29T03:15:42.738Z,95.30
2023-03-29T03:18:12.793Z,95.75
2023-03-29T03:20:41.280Z,96.17
2023-03-29T03:23:14.598Z,96.86
2023-03-29T03:25:42.965Z,96.85
2023-03-29T03:28:11.471Z,97.03
2023-03-29T03:30:39.877Z,97.90
2023-03-29T03:33:09.057Z,98.96
2023-03-29T03:35:39.174Z,99.30
2023-03-29T03:38:08.636Z,99.35
2023-03-29T03:40:37.035Z,99.51
2023-03-29T03:43:05.448Z,99.18
2023-03-29T03:45:33.876Z,97.83
2023-03-29T03:48:02.310Z,98.04
2023-03-29T03:50:30.760Z,98.49
2023-03-29T03:53:00.534Z,98.63
2023-03-29T03:55:29.980Z,99.34
2023-03-29T03:57:58.350Z,99.77
2023-03-29T04:00:27.423Z,99.95
2023-03-29T04:02:56.322Z,99.51
2023-03-29T04:05:24.957Z,98.96
2023-03-29T04:07:54.268Z,99.71
2023-03-29T04:10:24.607Z,99.47
2023-03-29T04:12:53.132Z,98.51
2023-03-29T04:15:21.766Z,98.29
2023-03-29T04:17:50.252Z,98.29
2023-03-29T04:20:18.972Z,98.96
2023-03-29T04:22:47.386Z,99.19
2023-03-29T04:25:16.544Z,99.01
2023-03-29T04:27:47.024Z,99.43
2023-03-29T04:30:15.794Z,99.17
2023-03-29T04:32:44.403Z,99.16
2023-03-29T04:35:12.832Z,97.63
2023-03-29T04:37:41.834Z,97.58
2023-03-29T04:40:14.183Z,97.13
2023-03-29T04:42:44.373Z,97.42
2023-03-29T04:45:15.429Z,96.24
2023-03-29T04:47:45.134Z,96.38
2023-03-29T04:50:14.771Z,97.47
2023-03-29T04:52:45.525Z,96.90
2023-03-29T04:55:14.222Z,97.76
2023-03-29T04:57:44.809Z,96.86
2023-03-29T05:00:16.907Z,96.61
2023-03-29T05:02:46.641Z,97.14
2023-03-29T05:05:15.248Z,96.82
2023-03-29T05:07:44.350Z,96.84
2023-03-29T05:10:12.899Z,97.49
2023-03-29T05:12:41.331Z,97.19
2023-03-29T05:15:11.105Z,96.12
2023-03-29T05:17:40.972Z,96.05
2023-03-29T05:20:11.311Z,95.19
2023-03-29T05:22:40.320Z,95.14
2023-03-29T05:25:11.449Z,95.73
2023-03-29T05:27:40.128Z,95.72
2023-03-29T05:30:10.042Z,95.60
2023-03-29T05:32:39.933Z,94.94
2023-03-29T05:35:09.199Z,94.49
2023-03-29T05:37:37.602Z,95.47
2023-03-29T05:40:10.361Z,94.28
2023-03-29T05:42:38.958Z,94.72
2023-03-29T05:45:08.602Z,93.84
2023-03-29T05:47:37.105Z,93.55
2023-03-29T05:50:10.322Z,94.04
2023-03-29T05:52:39.031Z,93.28
2023-03-29T05:55:08.768Z,93.32
2023-03-29T05:57:37.598Z,92.71
2023-03-29T06:00:15.765Z,92.22
2023-03-29T06:02:44.436Z,92.08
2023-03-29T06:05:15.002Z,92.28
2023-03-29T06:07:43.472Z,91.32
2023-03-29T06:10:12.731Z,90.46
2023-03-29T06:12:41.170Z,89.66
2023-03-29T06:15:10.306Z,87.31
2023-03-29T06:17:39.488Z,87.99
2023-03-29T06:20:11.045Z,87.51
2023-03-29T06:22:42.567Z,87.45
2023-03-29T06:25:12.375Z,87.00
2023-03-29T06:27:40.869Z,87.04
2023-03-29T06:30:10.328Z,86.15
2023-03-29T06:32:38.911Z,85.68
2023-03-29T06:35:08.394Z,85.26
2023-03-29T06:37:37.038Z,86.19
2023-03-29T06:40:10.103Z,85.12
2023-03-29T06:42:38.963Z,86.29
2023-03-29T06:45:08.739Z,85.29
2023-03-29T06:47:37.263Z,85.49
2023-03-29T06:50:06.861Z,84.32
2023-03-29T06:52:35.719Z,84.63
2023-03-29T06:55:07.846Z,83.83
2023-03-29T06:57:37.675Z,83.66
2023-03-29T07:00:14.907Z,83.93
2023-03-29T07:02:43.371Z,84.23
2023-03-29T07:05:13.565Z,82.86
2023-03-29T07:07:56.506Z,83.90
2023-03-29T07:10:28.137Z,83.58
2023-03-29T07:12:58.012Z,83.92
2023-03-29T07:15:27.598Z,83.64
2023-03-29T07:17:57.538Z,83.07
2023-03-29T07:20:27.158Z,83.49
2023-03-29T07:22:56.079Z,81.79
2023-03-29T07:25:27.458Z,81.29
2023-03-29T07:27:57.684Z,81.22
2023-03-29T07:30:31.612Z,81.68
2023-03-29T07:33:01.099Z,81.06
2023-03-29T07:35:30.957Z,81.51
2023-03-29T07:37:59.478Z,80.35
2023-03-29T07:40:28.184Z,80.13
2023-03-29T07:42:58.804Z,80.20
2023-03-29T07:45:29.797Z,78.65
2023-03-29T07:47:59.976Z,78.64
2023-03-29T07:50:28.837Z,79.23
2023-03-29T07:52:57.585Z,77.97
2023-03-29T07:55:26.167Z,77.73
2023-03-29T07:57:54.635Z,76.95
2023-03-29T08:00:25.313Z,76.50
2023-03-29T08:02:54.093Z,75.14
2023-03-29T08:05:37.839Z,75.40
2023-03-29T08:08:10.213Z,74.45
2023-03-29T08:10:39.749Z,75.38
2023-03-29T08:13:09.342Z,74.55
2023-03-29T08:15:40.032Z,74.53
2023-03-29T08:18:09.363Z,74.03
2023-03-29T08:20:38.124Z,74.35
2023-03-29T08:23:06.582Z,73.87
2023-03-29T08:25:35.170Z,74.48
2023-03-29T08:28:03.676Z,73.86
2023-03-29T08:30:32.125Z,74.45
2023-03-29T08:33:02.237Z,73.61
2023-03-29T08:35:30.973Z,73.58
2023-03-29T08:37:59.391Z,73.32
2023-03-29T08:40:30.497Z,73.76
2023-03-29T08:43:24.036Z,75.02
2023-03-29T08:46:04.518Z,75.25
2023-03-29T08:48:37.793Z,74.70
2023-03-29T08:51:14.370Z,75.49
2023-03-29T08:53:47.712Z,75.55
2023-03-29T08:56:19.537Z,74.76
2023-03-29T08:58:49.266Z,74.48
2023-03-29T09:01:17.928Z,74.36
2023-03-29T09:03:51.064Z,74.71
2023-03-29T09:06:22.233Z,74.83
2023-03-29T09:08:53.041Z,74.56
2023-03-29T09:11:44.110Z,74.70
2023-03-29T09:14:40.289Z,74.38
2023-03-29T09:17:21.728Z,73.35
2023-03-29T09:19:57.752Z,74.90
2023-03-29T09:22:36.694Z,73.26
2023-03-29T09:25:13.409Z,74.02
2023-03-29T09:27:50.148Z,73.10
2023-03-29T09:30:26.186Z,74.29
2023-03-29T09:32:58.314Z,73.67
2023-03-29T09:35:33.144Z,73.33
2023-03-29T09:38:01.930Z,73.25
2023-03-29T09:40:35.287Z,73.43
2023-03-29T09:43:05.985Z,72.14
2023-03-29T09:45:38.573Z,71.24
2023-03-29T09:48:13.467Z,71.65
2023-03-29T09:50:46.504Z,70.86
2023-03-29T09:53:16.010Z,70.90
2023-03-29T09:55:48.361Z,69.26
2023-03-29T09:58:21.424Z,68.97
2023-03-29T10:00:51.141Z,68.54
2023-03-29T10:03:21.211Z,67.71
2023-03-29T10:05:54.507Z,68.86
2023-03-29T10:08:28.208Z,67.48
2023-03-29T10:10:58.888Z,67.98
2023-03-29T10:13:30.631Z,66.42
2023-03-29T10:16:03.789Z,66.44
2023-03-29T10:18:33.301Z,66.73
2023-03-29T10:21:05.496Z,66.29
2023-03-29T10:23:35.273Z,66.84
2023-03-29T10:26:05.423Z,66.05
2023-03-29T10:28:36.305Z,67.03
2023-03-29T10:31:08.229Z,67.24
2023-03-29T10:33:37.551Z,65.41
2023-03-29T10:36:09.002Z,65.38
2023-03-29T10:38:38.651Z,63.45
2023-03-29T10:41:10.130Z,64.22
2023-03-29T10:43:40.514Z,63.99
2023-03-29T10:46:10.994Z,63.21
2023-03-29T10:48:50.244Z,63.56
2023-03-29T10:51:21.114Z,62.57
2023-03-29T10:53:49.583Z,63.46
2023-03-29T10:56:40.194Z,63.60
2023-03-29T10:59:19.705Z,64.28
2023-03-29T11:01:58.805Z,65.03
2023-03-29T11:04:35.637Z,65.19
2023-03-29T11:07:27.884Z,64.74
2023-03-29T11:10:05.999Z,64.67
2023-03-29T11:12:43.844Z,64.19
2023-03-29T11:15:38.317Z,64.92
2023-03-29T11:18:25.853Z,64.18
2023-03-29T11:21:02.353Z,65.41
2023-03-29T11:23:47.184Z,64.17
2023-03-29T11:26:18.200Z,63.27
2023-03-29T11:28:53.370Z,63.17
2023-03-29T11:31:37.218Z,61.91
2023-03-29T11:34:21.803Z,62.65
2023-03-29T11:36:58.742Z,61.98
2023-03-29T11:39:41.724Z,62.60
2023-03-29T11:42:17.777Z,61.56
2023-03-29T11:44:49.459Z,60.91
2023-03-29T11:47:21.448Z,61.31
2023-03-29T11:49:54.600Z,59.89
2023-03-29T11:52:30.067Z,60.74
2023-03-29T11:55:04.178Z,61.12
2023-03-29T11:57:38.184Z,61.24
2023-03-29T12:00:12.514Z,61.81
2023-03-29T12:02:43.689Z,61.23
2023-03-29T12:05:18.975Z,61.30
2023-03-29T12:07:53.196Z,60.23
2023-03-29T12:10:26.807Z,59.82
2023-03-29T12:13:01.164Z,59.38
2023-03-29T12:15:32.336Z,59.47
2023-03-29T12:18:08.324Z,58.00
2023-03-29T12:20:40.838Z,58.58
2023-03-29T12:23:13.825Z,59.11
2023-03-29T12:25:53.443Z,59.34
2023-03-29T12:28:40.332Z,59.81
2023-03-29T12:31:17.807Z,59.89
2023-03-29T12:34:04.969Z,57.52
2023-03-29T12:36:56.518Z,57.95
2023-03-29T12:39:26.765Z,59.23
2023-03-29T12:42:07.351Z,59.58
2023-03-29T12:44:36.826Z,58.97
2023-03-29T12:47:05.466Z,60.44
2023-03-29T12:49:36.471Z,60.54
2023-03-29T12:52:13.922Z,60.26
2023-03-29T12:54:42.538Z,60.69
2023-03-29T12:57:27.722Z,60.16
2023-03-29T12:59:56.418Z,60.52
2023-03-29T13:02:36.989Z,61.19
2023-03-29T13:05:26.497Z,59.62
2023-03-29T13:07:56.028Z,60.20
2023-03-29T13:10:37.910Z,59.64
2023-03-29T13:13:18.858Z,59.61
2023-03-29T13:15:48.500Z,59.66
2023-03-29T13:18:32.182Z,59.01
2023-03-29T13:21:08.515Z,59.06
2023-03-29T13:23:46.084Z,59.75
2023-03-29T13:26:25.341Z,59.75
2023-03-29T13:29:16.278Z,58.55
2023-03-29T13:31:51.572Z,59.49
2023-03-29T13:34:33.828Z,60.61
2023-03-29T13:37:12.994Z,59.02
2023-03-29T13:39:51.268Z,58.69
2023-03-29T13:42:23.599Z,58.71
2023-03-29T13:44:53.921Z,59.53
2023-03-29T13:47:48.908Z,60.45
2023-03-29T13:50:37.510Z,60.41
2023-03-29T13:53:13.774Z,60.77
2023-03-29T13:55:48.497Z,62.11
2023-03-29T13:58:27.364Z,61.97
2023-03-29T14:01:02.621Z,61.92
2023-03-29T14:03:40.790Z,61.55
2023-03-29T14:06:15.522Z,61.62
2023-03-29T14:08:45.881Z,61.92
2023-03-29T14:11:23.280Z,61.77
2023-03-29T14:13:54.539Z,61.30
2023-03-29T14:16:30.531Z,61.53
2023-03-29T14:19:00.375Z,61.97
2023-03-29T14:21:28.922Z,62.55
2023-03-29T14:24:01.579Z,62.67
2023-03-29T14:26:32.743Z,62.81
2023-03-29T14:29:02.673Z,62.89
2023-03-29T14:31:34.307Z,63.27
2023-03-29T14:34:06.147Z,62.94
2023-03-29T14:36:35.349Z,64.04
2023-03-29T14:39:09.207Z,63.52
2023-03-29T14:41:39.527Z,63.96
2023-03-29T14:44:09.238Z,63.66
2023-03-29T14:46:39.533Z,63.91
2023-03-29T14:49:08.867Z,64.50
2023-03-29T14:51:40.574Z,64.58
2023-03-29T14:54:12.366Z,65.54
2023-03-29T14:56:41.127Z,65.73
2023-03-29T14:59:26.370Z,65.84
2023-03-29T15:01:56.834Z,66.18
2023-03-29T15:04:32.738Z,66.57
2023-03-29T15:07:01.358Z,66.01
2023-03-29T15:09:35.257Z,65.82
2023-03-29T15:12:04.590Z,66.62
2023-03-29T15:14:37.107Z,67.13
2023-03-29T15:17:17.654Z,67.37
2023-03-29T15:19:46.262Z,68.02
2023-03-29T15:22:14.710Z,68.08
2023-03-29T15:24:45.447Z,68.96
2023-03-29T15:27:17.039Z,69.31
2023-03-29T15:29:48.380Z,71.46
2023-03-29T15:32:26.030Z,74.08
2023-03-29T15:35:01.662Z,73.91
2023-03-29T15:37:31.081Z,75.07
2023-03-29T15:39:59.903Z,74.70
2023-03-29T15:42:28.499Z,75.14
2023-03-29T15:44:57.258Z,75.88
2023-03-29T15:47:28.344Z,75.05
2023-03-29T15:49:56.815Z,75.57
2023-03-29T15:52:25.288Z,75.13
2023-03-29T15:54:53.704Z,74.85
2023-03-29T15:57:22.238Z,75.05
2023-03-29T15:59:50.774Z,73.64
2023-03-29T16:02:23.970Z,74.11
2023-03-29T16:04:53.793Z,74.35
2023-03-29T16:07:22.683Z,73.20
2023-03-29T16:09:51.205Z,73.08
2023-03-29T16:12:19.679Z,72.93
2023-03-29T16:14:48.118Z,72.72
2023-03-29T16:17:16.622Z,72.70
2023-03-29T16:19:45.047Z,73.02
2023-03-29T16:22:14.896Z,72.72
2023-03-29T16:24:43.910Z,72.17
2023-03-29T16:27:12.318Z,72.51
2023-03-29T16:29:40.810Z,72.40
2023-03-29T16:32:11.022Z,72.45
2023-03-29T16:34:41.060Z,72.88
2023-03-29T16:37:09.942Z,73.46
2023-03-29T16:39:40.530Z,73.36
2023-03-29T16:42:12.191Z,72.63
2023-03-29T16:44:40.647Z,72.76
2023-03-29T16:47:12.099Z,73.08
2023-03-29T16:49:41.089Z,72.89
2023-03-29T16:52:10.802Z,73.27
2023-03-29T16:54:40.652Z,73.54
2023-03-29T16:57:10.343Z,74.63
2023-03-29T16:59:38.834Z,75.32
2023-03-29T17:02:07.280Z,74.72
2023-03-29T17:04:36.195Z,74.73
2023-03-29T17:07:04.810Z,75.56
2023-03-29T17:09:33.495Z,75.76
2023-03-29T17:12:03.320Z,76.06
2023-03-29T17:14:31.706Z,75.28
2023-03-29T17:17:00.140Z,76.94
2023-03-29T17:19:28.584Z,76.13
2023-03-29T17:21:56.999Z,76.80
2023-03-29T17:24:25.473Z,77.02
2023-03-29T17:26:53.976Z,77.44
2023-03-29T17:29:23.911Z,77.61
2023-03-29T17:31:52.345Z,78.35
2023-03-29T17:34:20.894Z,77.42
2023-03-29T17:36:49.297Z,78.35
2023-03-29T17:39:18.759Z,78.04
2023-03-29T17:41:47.770Z,78.92
2023-03-29T17:44:16.243Z,79.40
2023-03-29T17:46:46.146Z,79.41
2023-03-29T17:49:15.148Z,79.25
2023-03-29T17:51:43.624Z,79.45
2023-03-29T17:54:12.150Z,79.81
2023-03-29T17:56:40.824Z,80.20
2023-03-29T17:59:09.318Z,80.53
2023-03-29T18:01:39.260Z,80.34
2023-03-29T18:04:09.534Z,80.87
2023-03-29T18:06:38.136Z,81.04
2023-03-29T18:09:06.614Z,81.27
2023-03-29T18:11:36.425Z,81.72
2023-03-29T18:14:05.342Z,82.51
2023-03-29T18:16:34.078Z,82.06
2023-03-29T18:19:02.539Z,82.18
2023-03-29T18:21:32.340Z,82.10
2023-03-29T18:24:00.749Z,83.04
2023-03-29T18:26:29.808Z,84.07
2023-03-29T18:28:58.276Z,84.57
2023-03-29T18:31:28.067Z,84.95
2023-03-29T18:33:56.610Z,84.32
2023-03-29T18:36:26.445Z,84.65
2023-03-29T18:38:56.354Z,84.09
2023-03-29T18:41:24.831Z,84.66
2023-03-29T18:43:57.402Z,85.22
2023-03-29T18:46:30.360Z,84.54
2023-03-29T18:48:59.617Z,84.20
2023-03-29T18:51:29.334Z,83.99
2023-03-29T18:53:59.288Z,84.81
2023-03-29T18:56:28.546Z,85.27
2023-03-29T18:58:57.020Z,84.51
2023-03-29T19:01:25.924Z,84.72
2023-03-29T19:03:54.654Z,85.16
2023-03-29T19:06:23.191Z,85.04
2023-03-29T19:08:51.671Z,84.81
2023-03-29T19:11:21.671Z,85.22
2023-03-29T19:13:50.856Z,85.77
2023-03-29T19:16:19.369Z,85.01
2023-03-29T19:18:47.996Z,85.74
2023-03-29T19:21:16.472Z,85.63
2023-03-29T19:23:45.022Z,85.71
2023-03-29T19:26:15.009Z,86.33
2023-03-29T19:28:44.825Z,85.14
2023-03-29T19:31:13.420Z,85.55
2023-03-29T19:33:42.084Z,85.09
2023-03-29T19:36:10.812Z,85.42
2023-03-29T19:38:39.336Z,86.03
2023-03-29T19:41:08.921Z,85.99
2023-03-29T19:43:37.326Z,86.59
2023-03-29T19:46:12.469Z,86.97
2023-03-29T19:48:41.318Z,87.38
2023-03-29T19:51:10.141Z,88.40
2023-03-29T19:53:39.138Z,88.13
2023-03-29T19:56:10.875Z,88.08
2023-03-29T19:58:39.492Z,87.97
2023-03-29T20:01:08.146Z,88.61
2023-03-29T20:03:38.744Z,89.37
2023-03-29T20:06:10.453Z,90.04
2023-03-29T20:08:39.050Z,90.59
2023-03-29T20:11:10.193Z,90.51
2023-03-29T20:13:39.615Z,90.58
2023-03-29T20:16:09.782Z,90.45
2023-03-29T20:18:39.958Z,91.31
2023-03-29T20:21:09.537Z,92.43
2023-03-29T20:23:38.367Z,92.35
2023-03-29T20:26:07.360Z,92.22
2023-03-29T20:28:37.538Z,92.97
2023-03-29T20:31:07.582Z,92.98
2023-03-29T20:33:35.989Z,92.80
2023-03-29T20:36:06.558Z,93.00
2023-03-29T20:38:35.302Z,93.15
2023-03-29T20:41:05.250Z,92.80
2023-03-29T20:43:37.531Z,92.11
2023-03-29T20:46:14.378Z,91.85
2023-03-29T20:48:45.934Z,91.32
2023-03-29T20:51:18.260Z,91.38
2023-03-29T20:53:46.811Z,92.03
2023-03-29T20:56:15.928Z,91.90
2023-03-29T20:58:44.353Z,91.29
2023-03-29T21:01:14.243Z,91.67
2023-03-29T21:03:43.336Z,92.00
2023-03-29T21:06:14.012Z,91.42
2023-03-29T21:08:43.827Z,91.64
2023-03-29T21:11:13.147Z,92.37
2023-03-29T21:13:42.150Z,93.50
2023-03-29T21:16:11.156Z,93.61
2023-03-29T21:18:40.589Z,93.83
2023-03-29T21:21:09.565Z,93.63
2023-03-29T21:23:38.860Z,93.75
2023-03-29T21:26:09.380Z,93.44
2023-03-29T21:28:37.873Z,93.44
2023-03-29T21:31:07.195Z,93.71
2023-03-29T21:33:36.458Z,94.29
2023-03-29T21:36:05.622Z,94.34
2023-03-29T21:38:34.126Z,94.40
2023-03-29T21:41:03.306Z,95.21
2023-03-29T21:43:33.362Z,94.99
2023-03-29T21:46:01.750Z,95.49
2023-03-29T21:48:30.332Z,95.69
2023-03-29T21:50:58.941Z,96.42
2023-03-29T21:53:27.332Z,96.03
2023-03-29T21:55:55.889Z,96.50
2023-03-29T21:58:24.323Z,96.43
2023-03-29T22:00:56.709Z,96.46
2023-03-29T22:03:25.361Z,96.62
2023-03-29T22:05:58.509Z,96.49
2023-03-29T22:08:27.106Z,96.50
2023-03-29T22:10:56.744Z,96.37
2023-03-29T22:13:26.691Z,96.91
2023-03-29T22:16:00.678Z,97.24
2023-03-29T22:18:42.076Z,97.21
2023-03-29T22:21:14.311Z,97.53
2023-03-29T22:23:44.051Z,97.61
2023-03-29T22:26:14.777Z,97.93
2023-03-29T22:28:43.872Z,98.56
2023-03-29T22:31:15.885Z,98.85
2023-03-29T22:33:45.216Z,99.42
2023-03-29T22:36:15.586Z,99.17
2023-03-29T22:38:44.470Z,98.94
2023-03-29T22:41:13.513Z,99.52
2023-03-29T22:43:41.969Z,99.29
2023-03-29T22:46:12.135Z,99.06
2023-03-29T22:48:42.299Z,99.45
2023-03-29T22:51:10.719Z,99.65
2023-03-29T22:53:39.955Z,99.92
2023-03-29T22:56:09.211Z,100.00
2023-03-29T22:58:38.221Z,100.00
2023-03-29T23:01:07.742Z,99.68
2023-03-29T23:03:36.857Z,100.00
2023-03-29T23:06:07.232Z,100.00
2023-03-29T23:08:36.233Z,100.00
2023-03-29T23:11:05.589Z,100.00
2023-03-29T23:13:35.161Z,100.00
2023-03-29T23:16:04.929Z,100.00
2023-03-29T23:18:34.608Z,100.00
2023-03-29T23:21:05.624Z,100.00
2023-03-29T23:23:36.851Z,100.00
2023-03-29T23:26:05.953Z,100.00
2023-03-29T23:28:34.777Z,100.00
2023-03-29T23:31:05.433Z,100.00
2023-03-29T23:33:35.920Z,100.00
2023-03-29T23:36:07.434Z,100.00
2023-03-29T23:38:38.948Z,100.00
2023-03-29T23:41:10.447Z,100.00
2023-03-29T23:43:41.302Z,100.00
2023-03-29T23:46:12.168Z,100.00
2023-03-29T23:48:40.929Z,100.00
2023-03-29T23:51:09.859Z,100.00
2023-03-29T23:53:39.847Z,100.00
2023-03-29T23:56:09.132Z,100.00
2023-03-29T23:58:39.138Z,100.00
